Time;durP1;ratioP1;P1;durP2;ratioP2;P2;SDS_P1;SDS_P2;PMS_P1;PMS_P2;Temp;Humidity;BMP_temperature;BMP_pressure;BME280_temperature;BME280_humidity;BME280_pressure;Samples;Min_cycle;Max_cycle;Signal;HPM_P1;HPM_P2
2022/03/20 00:00:39;;;;;;;18.30;15.30;;;;;;;6.04;52.44;96474.53;4378203;32;20192;-60
2022/03/20 00:03:15;;;;;;;20.27;16.60;;;;;;;6.12;52.32;96472.31;4377687;32;20199;-61
2022/03/20 00:05:42;;;;;;;17.13;14.70;;;;;;;6.17;52.17;96480.31;4374609;32;20248;-60
2022/03/20 00:08:12;;;;;;;19.27;16.30;;;;;;;6.25;51.69;96473.06;4390322;32;20291;-60
2022/03/20 00:10:44;;;;;;;18.30;15.27;;;;;;;6.19;52.16;96478.25;4373403;32;20279;-60
2022/03/20 00:13:10;;;;;;;20.00;15.80;;;;;;;6.12;52.12;96474.97;4390710;32;20284;-60
2022/03/20 00:15:40;;;;;;;17.77;15.37;;;;;;;6.19;51.98;96472.19;4392130;32;20314;-61
2022/03/20 00:18:06;;;;;;;18.67;16.10;;;;;;;6.15;52.15;96471.87;4380941;32;20276;-60
2022/03/20 00:20:35;;;;;;;18.30;15.20;;;;;;;6.16;52.17;96470.03;4363037;32;20296;-60
2022/03/20 00:23:04;;;;;;;19.73;15.57;;;;;;;6.14;52.04;96465.00;4363115;32;20291;-61
2022/03/20 00:25:30;;;;;;;19.53;15.80;;;;;;;6.00;52.47;96468.97;4363116;32;20277;-60
2022/03/20 00:27:56;;;;;;;17.13;15.20;;;;;;;6.06;52.44;96467.19;4366171;32;20337;-60
2022/03/20 00:30:21;;;;;;;16.87;15.00;;;;;;;5.91;52.89;96459.03;4374770;32;20285;-60
2022/03/20 00:32:47;;;;;;;19.30;16.23;;;;;;;5.91;52.69;96467.72;4372783;32;20223;-60
2022/03/20 00:35:12;;;;;;;15.97;14.33;;;;;;;5.93;52.74;96468.28;4374998;32;20257;-60
2022/03/20 00:37:37;;;;;;;16.67;14.23;;;;;;;5.86;52.98;96462.31;4387396;32;20207;-59
2022/03/20 00:40:03;;;;;;;17.27;15.47;;;;;;;5.87;52.81;96464.72;4361661;32;20204;-61
2022/03/20 00:42:28;;;;;;;17.60;15.73;;;;;;;5.78;53.16;96460.09;4374487;32;20195;-60
2022/03/20 00:44:54;;;;;;;18.80;14.83;;;;;;;5.76;53.23;96462.16;4377389;32;20185;-60
2022/03/20 00:47:19;;;;;;;17.47;14.37;;;;;;;5.67;53.51;96463.53;4384942;32;20180;-60
2022/03/20 00:49:44;;;;;;;17.37;15.43;;;;;;;5.68;53.68;96470.41;4381945;32;20192;-60
2022/03/20 00:52:10;;;;;;;16.93;13.97;;;;;;;5.60;53.64;96463.69;4383483;32;20321;-60
2022/03/20 00:54:36;;;;;;;17.53;15.33;;;;;;;5.66;53.71;96467.19;4373839;32;20215;-60
2022/03/20 00:57:01;;;;;;;18.00;14.37;;;;;;;5.47;54.10;96459.47;4374206;32;20189;-61
2022/03/20 00:59:26;;;;;;;17.10;15.30;;;;;;;5.52;54.03;96464.03;4372726;32;20203;-60
2022/03/20 01:01:52;;;;;;;18.17;15.17;;;;;;;5.43;54.32;96466.22;4378880;32;20277;-60
2022/03/20 01:04:17;;;;;;;18.00;15.50;;;;;;;5.66;53.75;96464.56;4383028;32;20180;-60
2022/03/20 01:06:42;;;;;;;17.43;14.73;;;;;;;5.72;53.72;96468.91;4374084;32;20193;-60
2022/03/20 01:09:08;;;;;;;16.57;14.77;;;;;;;5.72;53.65;96461.00;4373733;32;20245;-60
2022/03/20 01:11:34;;;;;;;18.07;14.33;;;;;;;5.60;54.37;96468.16;4359876;32;20184;-60
2022/03/20 01:14:00;;;;;;;19.00;15.00;;;;;;;5.48;54.55;96463.69;4359504;32;20224;-61
2022/03/20 01:16:25;;;;;;;17.80;14.37;;;;;;;5.58;54.23;96470.22;4370109;32;20180;-60
2022/03/20 01:18:50;;;;;;;20.00;15.03;;;;;;;5.71;53.89;96473.38;4379359;32;20239;-60
2022/03/20 01:21:17;;;;;;;16.50;14.67;;;;;;;5.79;53.40;96466.94;4380668;32;20203;-61
2022/03/20 01:23:43;;;;;;;19.83;15.70;;;;;;;5.60;54.28;96468.16;4384656;32;20203;-59
2022/03/20 01:26:09;;;;;;;17.20;14.90;;;;;;;5.67;53.85;96466.97;4371615;32;20360;-60
2022/03/20 01:28:35;;;;;;;16.80;14.27;;;;;;;5.56;54.23;96467.00;4359799;32;20201;-60
2022/03/20 01:31:00;;;;;;;15.97;14.27;;;;;;;5.63;54.02;96463.19;4359722;32;20296;-60
2022/03/20 01:33:25;;;;;;;17.23;14.03;;;;;;;5.55;54.24;96460.16;4371705;32;20207;-60
2022/03/20 01:35:52;;;;;;;15.40;13.80;;;;;;;5.54;54.21;96454.09;4373457;32;20256;-61
2022/03/20 01:38:21;;;;;;;16.00;14.03;;;;;;;5.51;54.19;96460.59;4371249;32;20208;-60
2022/03/20 01:40:47;;;;;;;16.60;14.90;;;;;;;5.57;54.34;96469.41;4360033;32;20381;-59
2022/03/20 01:43:14;;;;;;;15.53;13.83;;;;;;;5.50;54.67;96472.16;4359554;32;20288;-60
2022/03/20 01:45:39;;;;;;;15.93;14.27;;;;;;;5.44;54.78;96473.09;4362267;32;20283;-60
2022/03/20 01:48:04;;;;;;;16.50;13.90;;;;;;;5.62;54.28;96473.97;4388716;32;20354;-60
2022/03/20 01:50:32;;;;;;;17.67;13.93;;;;;;;5.54;54.76;96469.88;4378190;32;20212;-60
2022/03/20 01:52:58;;;;;;;16.50;14.57;;;;;;;5.53;54.45;96469.06;4359209;32;20199;-60
2022/03/20 01:55:24;;;;;;;16.30;14.60;;;;;;;5.49;54.50;96478.47;4359545;32;20284;-60
2022/03/20 01:57:50;;;;;;;17.40;14.27;;;;;;;5.59;54.52;96467.34;4367577;32;20310;-60
2022/03/20 02:00:19;;;;;;;16.60;14.03;;;;;;;5.40;55.34;96473.81;4361012;32;20280;-60
2022/03/20 02:02:45;;;;;;;16.53;14.37;;;;;;;5.41;54.96;96473.53;4363030;32;20181;-60
2022/03/20 02:05:11;;;;;;;17.60;14.77;;;;;;;5.61;54.49;96469.75;4361446;32;20376;-60
2022/03/20 02:07:40;;;;;;;16.07;14.40;;;;;;;5.53;54.78;96474.34;4357876;32;20248;-60
2022/03/20 02:10:07;;;;;;;16.20;14.37;;;;;;;5.45;54.96;96471.25;4357167;32;20300;-61
2022/03/20 02:12:33;;;;;;;16.63;14.80;;;;;;;5.48;55.03;96470.78;4357517;32;20291;-61
2022/03/20 02:15:02;;;;;;;16.13;14.40;;;;;;;4.99;56.42;96472.91;4370418;32;20292;-60
2022/03/20 02:17:31;;;;;;;19.27;15.80;;;;;;;5.28;56.02;96468.53;4359375;32;20270;-60
2022/03/20 02:19:57;;;;;;;20.27;16.17;;;;;;;5.30;55.80;96473.56;4367557;32;20277;-60
2022/03/20 02:22:24;;;;;;;21.30;17.10;;;;;;;5.32;56.19;96477.59;4360413;32;20335;-61
2022/03/20 02:24:51;;;;;;;18.53;15.90;;;;;;;5.29;56.21;96472.78;4371820;32;20277;-60
2022/03/20 02:27:22;;;;;;;18.70;16.70;;;;;;;5.21;56.79;96469.69;4374445;32;20474;-60
2022/03/20 02:29:52;;;;;;;19.63;16.70;;;;;;;5.14;57.05;96477.72;4384228;32;20289;-60
2022/03/20 02:32:21;;;;;;;21.70;16.80;;;;;;;4.91;57.97;96468.00;4359277;32;20288;-60
2022/03/20 02:34:48;;;;;;;20.23;15.77;;;;;;;4.65;58.60;96466.63;4360263;32;20415;-59
2022/03/20 02:37:14;;;;;;;17.77;15.87;;;;;;;4.77;58.33;96464.81;4372148;32;20280;-60
2022/03/20 02:39:40;;;;;;;19.73;16.10;;;;;;;4.83;58.24;96453.38;4365958;32;20292;-60
2022/03/20 02:42:07;;;;;;;17.83;15.07;;;;;;;4.74;58.19;96465.25;4369957;32;20281;-60
2022/03/20 02:44:47;;;;;;;19.70;16.23;;;;;;;4.93;57.98;96455.44;4367284;32;20189;-60
2022/03/20 02:47:13;;;;;;;19.33;16.30;;;;;;;4.92;58.10;96458.28;4367590;32;20273;-60
2022/03/20 02:49:38;;;;;;;18.83;16.33;;;;;;;4.90;58.01;96452.47;4374840;32;20318;-60
2022/03/20 02:52:04;;;;;;;22.00;16.17;;;;;;;4.95;57.58;96453.38;4363307;32;20193;-60
2022/03/20 02:54:29;;;;;;;18.93;15.70;;;;;;;5.02;57.38;96447.97;4371470;32;20185;-60
2022/03/20 02:56:55;;;;;;;19.13;16.37;;;;;;;5.00;57.60;96453.47;4363045;32;20185;-60
2022/03/20 02:59:21;;;;;;;20.20;16.90;;;;;;;5.08;57.20;96447.06;4363290;32;20200;-60
2022/03/20 03:01:46;;;;;;;17.70;15.80;;;;;;;4.88;57.93;96452.69;4379235;32;20185;-61
2022/03/20 03:04:12;;;;;;;20.90;16.23;;;;;;;4.79;58.11;96451.41;4386139;32;20185;-60
2022/03/20 03:06:37;;;;;;;20.30;15.73;;;;;;;4.98;57.64;96460.81;4363930;32;20207;-60
2022/03/20 03:11:46;;;;;;;18.33;15.43;;;;;;;5.07;57.55;96454.16;4377967;32;20207;-60
2022/03/20 03:16:55;;;;;;;17.63;15.73;;;;;;;5.34;56.58;96461.56;4380461;32;20249;-60
2022/03/20 03:19:21;;;;;;;18.20;16.27;;;;;;;5.38;56.37;96467.97;4379628;32;20285;-60
2022/03/20 03:21:46;;;;;;;21.47;15.87;;;;;;;5.21;56.78;96472.31;4364511;32;20177;-60
2022/03/20 03:24:12;;;;;;;18.83;15.63;;;;;;;5.17;56.75;96472.81;4377861;32;20312;-60
2022/03/20 03:26:37;;;;;;;18.07;16.07;;;;;;;5.15;56.74;96479.31;4383088;32;20326;-60
2022/03/20 03:29:03;;;;;;;19.30;17.10;;;;;;;4.82;57.74;96480.69;4383741;32;20228;-60
2022/03/20 03:31:28;;;;;;;19.83;16.23;;;;;;;4.88;58.01;96494.75;4377996;32;20313;-60
2022/03/20 03:36:37;;;;;;;19.90;16.43;;;;;;;4.71;58.67;96499.88;4365667;32;20226;-61
2022/03/20 03:39:03;;;;;;;18.17;15.37;;;;;;;4.70;58.72;96502.72;4392289;32;20331;-61
2022/03/20 03:41:28;;;;;;;18.67;16.73;;;;;;;4.64;58.81;96504.44;4366862;32;20191;-60
2022/03/20 03:43:53;;;;;;;18.80;16.77;;;;;;;4.65;59.05;96497.34;4384529;32;20185;-61
2022/03/20 03:46:19;;;;;;;20.97;17.20;;;;;;;4.66;59.31;96497.13;4376719;32;20207;-60
2022/03/20 03:48:45;;;;;;;19.50;16.33;;;;;;;4.66;59.27;96497.13;4368170;32;20237;-60
2022/03/20 03:51:10;;;;;;;19.70;16.23;;;;;;;4.79;58.54;96496.91;4377420;32;20177;-61
2022/03/20 03:53:35;;;;;;;18.87;16.43;;;;;;;4.91;58.33;96510.06;4374934;32;20351;-60
2022/03/20 03:56:01;;;;;;;20.00;16.73;;;;;;;5.02;57.90;96508.47;4381475;32;20203;-60
2022/03/20 03:58:26;;;;;;;19.87;16.17;;;;;;;5.01;57.87;96509.50;4375175;32;20181;-60
2022/03/20 04:00:51;;;;;;;18.57;16.53;;;;;;;5.06;57.79;96514.88;4372542;32;20201;-61
2022/03/20 04:03:17;;;;;;;18.63;16.20;;;;;;;4.86;58.44;96509.13;4361219;32;20296;-60
2022/03/20 04:05:42;;;;;;;18.50;15.77;;;;;;;4.91;58.28;96511.91;4366791;32;20204;-60
2022/03/20 04:08:08;;;;;;;18.10;15.03;;;;;;;4.93;57.93;96515.09;4378776;32;20188;-60
2022/03/20 04:10:34;;;;;;;18.13;15.90;;;;;;;4.58;59.01;96513.22;4360840;32;20213;-60
2022/03/20 04:12:59;;;;;;;18.00;15.83;;;;;;;4.49;59.46;96506.69;4362206;32;20289;-60
2022/03/20 04:15:25;;;;;;;18.67;16.57;;;;;;;4.54;59.65;96501.56;4361860;32;20263;-60
2022/03/20 04:17:51;;;;;;;17.83;15.93;;;;;;;4.71;59.45;96507.75;4362059;32;20200;-61
2022/03/20 04:20:17;;;;;;;16.93;15.13;;;;;;;4.84;58.54;96512.81;4386790;32;20185;-60
2022/03/20 04:23:45;;;;;;;17.80;15.87;;;;;;;4.90;58.41;96515.56;4373465;32;20285;-60
2022/03/20 04:25:32;;;;;;;23.37;17.53;;;;;;;4.78;58.41;96512.94;4370587;32;20185;-60
2022/03/20 04:27:58;;;;;;;20.93;16.43;;;;;;;4.44;59.94;96512.63;4359634;32;20335;-60
2022/03/20 04:30:28;;;;;;;21.47;18.17;;;;;;;4.33;60.24;96517.84;4361497;32;20320;-60
2022/03/20 04:32:54;;;;;;;18.83;16.80;;;;;;;4.31;60.13;96517.28;4362036;32;20336;-61
2022/03/20 04:35:24;;;;;;;21.73;15.90;;;;;;;4.51;59.72;96511.72;4360963;32;20408;-60
2022/03/20 04:37:54;;;;;;;18.13;15.37;;;;;;;4.32;60.79;96521.50;4371379;32;20348;-61
2022/03/20 04:40:19;;;;;;;18.97;16.57;;;;;;;4.37;59.92;96522.41;4369141;32;20281;-60
2022/03/20 04:42:45;;;;;;;18.87;14.97;;;;;;;4.58;59.66;96515.84;4367225;32;20309;-60
2022/03/20 04:45:11;;;;;;;17.10;15.23;;;;;;;4.71;58.77;96518.28;4374853;32;20192;-60
2022/03/20 04:58:35;;;;;;;17.57;15.17;;;;;;;4.73;58.54;96518.84;4361190;32;20299;-60
2022/03/20 05:01:01;;;;;;;18.20;15.47;;;;;;;4.58;58.90;96528.97;4367415;32;20417;-61
2022/03/20 05:03:27;;;;;;;17.07;15.03;;;;;;;4.71;58.47;96520.91;4368267;32;20272;-60
2022/03/20 05:05:53;;;;;;;19.43;15.30;;;;;;;4.69;58.34;96525.59;4364725;32;20200;-61
2022/03/20 05:08:19;;;;;;;17.13;14.17;;;;;;;4.95;57.84;96534.09;4362854;32;20277;-60
2022/03/20 05:13:28;;;;;;;18.13;15.60;;;;;;;4.98;57.34;96546.78;4361191;32;20223;-61
2022/03/20 05:15:56;;;;;;;17.77;15.13;;;;;;;4.77;58.02;96553.38;4360232;32;20317;-61
2022/03/20 05:18:23;;;;;;;18.40;15.10;;;;;;;4.40;59.02;96552.69;4359955;32;20217;-60
2022/03/20 05:20:49;;;;;;;18.03;15.27;;;;;;;4.42;59.37;96563.78;4374394;32;20281;-60
2022/03/20 05:23:15;;;;;;;18.63;15.23;;;;;;;4.67;58.91;96558.38;4361785;32;20295;-60
2022/03/20 05:25:40;;;;;;;19.40;14.63;;;;;;;4.53;59.10;96556.97;4371766;32;20277;-60
2022/03/20 05:28:05;;;;;;;17.80;15.40;;;;;;;4.86;58.30;96553.84;4359645;32;20227;-60
2022/03/20 05:30:31;;;;;;;18.13;14.77;;;;;;;4.77;58.41;96564.69;4367596;32;20227;-60
2022/03/20 05:32:57;;;;;;;17.70;14.90;;;;;;;4.52;58.88;96561.41;4370734;32;20200;-61
2022/03/20 05:35:23;;;;;;;17.97;14.63;;;;;;;4.75;58.50;96558.06;4363126;32;20200;-60
2022/03/20 05:37:49;;;;;;;18.83;15.37;;;;;;;4.87;57.63;96563.31;4355438;32;20197;-60
2022/03/20 05:40:15;;;;;;;19.27;15.13;;;;;;;4.66;58.51;96560.19;4350848;32;20210;-60
2022/03/20 05:42:42;;;;;;;18.40;14.27;;;;;;;4.53;59.22;96560.41;4371918;32;20201;-61
2022/03/20 05:45:10;;;;;;;18.47;15.97;;;;;;;4.51;59.46;96566.91;4359651;32;20300;-61
2022/03/20 05:47:36;;;;;;;18.60;16.13;;;;;;;4.75;58.68;96564.13;4357942;32;20289;-61
2022/03/20 05:50:02;;;;;;;17.43;15.17;;;;;;;4.71;58.26;96568.22;4359194;32;20273;-61
2022/03/20 05:52:31;;;;;;;19.03;15.50;;;;;;;4.81;58.49;96572.91;4365492;32;20189;-60
2022/03/20 05:54:59;;;;;;;19.87;15.53;;;;;;;4.96;57.72;96570.66;4367646;32;20265;-60
2022/03/20 06:00:16;;;;;;;16.83;14.43;;;;;;;4.87;58.07;96568.59;4370798;32;20307;-60
2022/03/20 06:02:44;;;;;;;18.27;15.93;;;;;;;4.87;58.04;96576.47;4373815;32;20352;-60
2022/03/20 06:05:11;;;;;;;18.33;15.43;;;;;;;4.84;58.04;96575.88;4365375;32;20289;-61
2022/03/20 06:07:43;;;;;;;18.97;15.50;;;;;;;4.61;58.79;96580.28;4368232;32;20280;-61
2022/03/20 06:10:13;;;;;;;18.93;14.80;;;;;;;4.54;58.82;96584.84;4388775;32;20265;-61
2022/03/20 06:12:39;;;;;;;16.77;15.03;;;;;;;4.89;58.14;96577.03;4384227;32;20344;-61
2022/03/20 06:15:08;;;;;;;17.87;15.50;;;;;;;4.70;58.35;96585.00;4387152;32;20273;-60
2022/03/20 06:17:36;;;;;;;20.80;15.00;;;;;;;4.69;58.32;96586.03;4390094;32;20256;-61
2022/03/20 06:20:02;;;;;;;18.93;15.73;;;;;;;4.72;58.55;96595.28;4373639;32;20342;-60
2022/03/20 06:22:27;;;;;;;19.00;16.53;;;;;;;4.65;58.64;96605.09;4374634;32;20363;-60
2022/03/20 06:24:52;;;;;;;18.90;16.17;;;;;;;4.81;58.20;96602.63;4367969;32;20230;-61
2022/03/20 06:27:18;;;;;;;18.57;16.00;;;;;;;4.46;58.53;96599.88;4385695;32;20189;-61
2022/03/20 06:29:43;;;;;;;18.13;16.23;;;;;;;4.51;59.34;96601.84;4377447;32;20195;-61
2022/03/20 06:32:09;;;;;;;18.40;16.07;;;;;;;4.61;58.88;96606.56;4379763;32;20188;-60
2022/03/20 06:34:34;;;;;;;22.30;16.80;;;;;;;4.78;58.07;96613.56;4376265;32;20181;-61
2022/03/20 06:36:59;;;;;;;19.87;15.80;;;;;;;4.81;57.95;96617.59;4382363;32;20243;-61
2022/03/20 06:39:24;;;;;;;19.63;15.50;;;;;;;4.92;57.71;96616.03;4365173;32;20180;-60
2022/03/20 06:41:50;;;;;;;19.10;16.47;;;;;;;5.02;57.62;96613.62;4387347;32;20223;-61
2022/03/20 06:44:15;;;;;;;19.23;16.40;;;;;;;5.03;57.61;96615.25;4376455;32;20189;-60
2022/03/20 06:46:42;;;;;;;18.70;15.70;;;;;;;5.09;57.37;96609.09;4369977;32;20260;-61
2022/03/20 06:49:09;;;;;;;20.20;16.93;;;;;;;5.04;57.68;96614.22;4378047;32;20180;-60
2022/03/20 06:51:35;;;;;;;18.87;16.00;;;;;;;5.13;57.33;96610.25;4373023;32;20365;-60
2022/03/20 06:54:00;;;;;;;20.70;16.27;;;;;;;4.91;57.40;96617.84;4363261;32;20280;-61
2022/03/20 06:56:28;;;;;;;17.50;15.50;;;;;;;5.07;57.26;96616.41;4375981;32;20193;-61
2022/03/20 06:58:54;;;;;;;21.67;16.40;;;;;;;5.05;57.41;96618.44;4364232;32;20258;-60
2022/03/20 07:01:19;;;;;;;19.57;15.50;;;;;;;5.06;56.79;96618.22;4377657;32;20269;-61
2022/03/20 07:03:45;;;;;;;18.90;16.07;;;;;;;5.32;56.63;96627.53;4378085;32;20204;-61
2022/03/20 07:06:10;;;;;;;19.87;16.13;;;;;;;5.33;56.57;96621.25;4378117;32;20200;-60
2022/03/20 07:08:35;;;;;;;19.20;17.13;;;;;;;5.43;56.03;96623.28;4392002;32;20181;-60
2022/03/20 07:11:01;;;;;;;20.77;17.97;;;;;;;5.49;55.87;96619.75;4389811;32;20226;-60
2022/03/20 07:16:14;;;;;;;19.23;16.53;;;;;;;5.57;55.81;96624.69;4378171;32;20203;-60
2022/03/20 07:18:39;;;;;;;16.57;14.67;;;;;;;5.57;55.96;96626.53;4376549;32;20398;-60
2022/03/20 07:21:06;;;;;;;17.37;15.57;;;;;;;5.65;55.74;96626.16;4371107;32;20276;-61
2022/03/20 07:23:31;;;;;;;20.10;16.57;;;;;;;5.63;55.96;96636.12;4349375;32;20185;-61
2022/03/20 07:31:24;;;;;;;18.53;16.00;;;;;;;5.67;55.64;96642.53;4378227;32;20354;-60
2022/03/20 07:33:50;;;;;;;18.37;15.40;;;;;;;5.82;55.68;96645.50;4377891;32;20281;-60
2022/03/20 07:36:16;;;;;;;20.20;16.50;;;;;;;5.95;55.38;96649.75;4363481;32;20207;-61
2022/03/20 07:38:41;;;;;;;19.20;16.57;;;;;;;5.84;54.64;96653.97;4388204;32;20267;-60
2022/03/20 07:41:07;;;;;;;18.63;16.10;;;;;;;5.86;54.88;96651.91;4377532;32;20217;-61
2022/03/20 07:43:32;;;;;;;21.27;15.67;;;;;;;5.80;55.04;96658.12;4377807;32;20185;-60
2022/03/20 07:45:57;;;;;;;18.40;16.37;;;;;;;6.06;54.78;96657.63;4380380;32;20204;-61
2022/03/20 07:48:23;;;;;;;18.03;15.97;;;;;;;6.06;54.57;96651.56;4376982;32;20260;-61
2022/03/20 07:50:50;;;;;;;18.93;16.33;;;;;;;6.03;54.89;96647.56;4364988;32;20173;-61
2022/03/20 07:53:17;;;;;;;17.40;15.43;;;;;;;6.16;54.43;96652.59;4363633;32;20292;-60
2022/03/20 07:55:44;;;;;;;19.63;16.37;;;;;;;6.12;54.50;96659.34;4375640;32;20286;-60
2022/03/20 07:58:10;;;;;;;18.10;16.20;;;;;;;6.18;54.40;96652.38;4362337;32;20335;-60
2022/03/20 08:00:38;;;;;;;18.90;16.20;;;;;;;6.29;54.10;96656.00;4365050;32;20424;-61
2022/03/20 08:03:05;;;;;;;18.83;16.63;;;;;;;6.50;53.76;96658.00;4380611;32;20317;-60
2022/03/20 08:05:30;;;;;;;20.17;16.17;;;;;;;6.45;53.62;96660.53;4368805;32;20368;-60
2022/03/20 08:07:56;;;;;;;20.87;15.40;;;;;;;6.39;53.84;96656.22;4375667;32;20277;-60
2022/03/20 08:10:21;;;;;;;18.87;16.57;;;;;;;6.56;54.21;96662.34;4377607;32;20180;-63
2022/03/20 08:12:48;;;;;;;20.03;17.33;;;;;;;6.65;53.69;96666.19;4368917;32;20348;-60
2022/03/20 08:15:17;;;;;;;19.73;16.80;;;;;;;6.65;53.65;96663.56;4373770;32;20200;-60
2022/03/20 08:17:46;;;;;;;18.67;16.37;;;;;;;6.67;54.14;96660.69;4370426;32;20374;-61
2022/03/20 08:20:13;;;;;;;20.37;17.50;;;;;;;6.69;53.66;96664.69;4360950;32;20351;-61
2022/03/20 08:22:39;;;;;;;19.90;16.93;;;;;;;6.65;53.53;96665.44;4373095;32;20291;-61
2022/03/20 08:25:05;;;;;;;19.90;16.70;;;;;;;6.85;53.43;96671.88;4373107;32;20320;-61
2022/03/20 08:27:30;;;;;;;19.57;17.03;;;;;;;6.86;53.33;96670.81;4359898;32;20223;-61
2022/03/20 08:29:57;;;;;;;21.93;17.70;;;;;;;6.85;53.71;96676.34;4362684;32;20359;-60
2022/03/20 08:32:23;;;;;;;21.60;17.57;;;;;;;7.02;53.55;96676.38;4374749;32;20196;-61
2022/03/20 08:34:50;;;;;;;20.87;17.30;;;;;;;7.06;53.41;96670.41;4378569;32;20281;-60
2022/03/20 08:37:15;;;;;;;20.07;17.20;;;;;;;7.03;53.21;96672.72;4376477;32;20281;-60
2022/03/20 08:39:40;;;;;;;20.17;16.67;;;;;;;7.16;53.24;96667.94;4382622;32;20303;-61
2022/03/20 08:42:07;;;;;;;18.00;16.10;;;;;;;7.27;53.06;96678.69;4391544;32;20221;-61
2022/03/20 08:44:32;;;;;;;19.83;17.00;;;;;;;7.19;53.16;96678.03;4378834;32;20185;-61
2022/03/20 08:46:57;;;;;;;19.70;17.67;;;;;;;7.19;53.38;96677.22;4376660;32;20384;-60
2022/03/20 08:49:22;;;;;;;20.40;17.27;;;;;;;7.25;53.46;96676.28;4363816;32;20208;-60
2022/03/20 08:51:48;;;;;;;19.00;16.27;;;;;;;7.33;52.83;96667.94;4392974;32;20203;-61
2022/03/20 08:54:13;;;;;;;19.07;15.97;;;;;;;7.41;52.75;96667.56;4385222;32;20188;-62
2022/03/20 08:56:39;;;;;;;17.87;15.83;;;;;;;7.56;52.60;96661.72;4375308;32;20193;-60
2022/03/20 08:59:06;;;;;;;18.50;16.53;;;;;;;7.70;51.84;96676.19;4362196;32;20229;-61
2022/03/20 09:01:32;;;;;;;18.27;16.27;;;;;;;7.78;52.25;96656.50;4362451;32;20211;-61
2022/03/20 09:03:57;;;;;;;19.03;15.43;;;;;;;7.78;51.54;96659.94;4376078;32;20288;-60
2022/03/20 09:06:23;;;;;;;16.83;15.07;;;;;;;7.86;51.57;96656.09;4366565;32;20177;-60
2022/03/20 09:08:49;;;;;;;17.97;15.33;;;;;;;7.91;51.52;96659.59;4381460;32;20184;-60
2022/03/20 09:11:16;;;;;;;17.20;15.43;;;;;;;8.05;50.52;96662.72;4386221;32;20202;-60
2022/03/20 09:13:41;;;;;;;18.03;15.23;;;;;;;8.10;50.03;96656.69;4362042;32;20283;-61
2022/03/20 09:19:00;;;;;;;17.87;15.97;;;;;;;8.21;49.94;96661.06;4376804;32;20279;-61
2022/03/20 09:21:34;;;;;;;17.10;15.17;;;;;;;8.32;49.39;96659.31;4359818;32;20346;-61
2022/03/20 09:24:00;;;;;;;15.80;14.30;;;;;;;8.36;48.92;96660.47;4362611;32;20303;-61
2022/03/20 09:26:26;;;;;;;17.50;14.07;;;;;;;8.37;49.20;96660.22;4376032;32;20276;-60
2022/03/20 09:28:51;;;;;;;16.20;14.50;;;;;;;8.54;49.22;96665.44;4390055;32;20335;-61
2022/03/20 09:31:19;;;;;;;16.33;14.50;;;;;;;8.62;48.25;96659.75;4376082;32;20264;-60
2022/03/20 09:33:44;;;;;;;17.40;14.27;;;;;;;8.70;48.22;96658.50;4363565;32;20214;-61
2022/03/20 09:36:13;;;;;;;15.60;13.87;;;;;;;8.63;48.10;96660.53;4367562;32;20275;-61
2022/03/20 09:38:39;;;;;;;15.47;13.53;;;;;;;8.73;48.13;96650.84;4375742;32;20223;-61
2022/03/20 09:41:09;;;;;;;20.40;13.70;;;;;;;8.77;48.03;96651.16;4371937;32;20316;-61
2022/03/20 09:43:40;;;;;;;16.60;14.80;;;;;;;8.81;47.61;96653.06;4377521;32;20319;-59
2022/03/20 09:46:06;;;;;;;17.80;14.80;;;;;;;8.98;47.18;96652.16;4378116;32;20292;-61
2022/03/20 09:48:31;;;;;;;16.07;14.30;;;;;;;9.13;46.41;96655.78;4378568;32;20280;-61
2022/03/20 09:50:58;;;;;;;15.87;13.90;;;;;;;9.30;46.40;96655.66;4370246;32;20185;-60
2022/03/20 09:53:24;;;;;;;14.60;13.03;;;;;;;9.40;46.05;96654.94;4374553;32;20248;-60
2022/03/20 09:55:50;;;;;;;15.23;13.60;;;;;;;9.51;45.06;96662.72;4375797;32;20309;-61
2022/03/20 09:58:16;;;;;;;13.73;11.83;;;;;;;9.53;44.45;96659.84;4375448;32;20382;-61
2022/03/20 10:00:41;;;;;;;15.27;13.50;;;;;;;9.68;45.41;96665.25;4360256;32;20356;-61
2022/03/20 10:03:17;;;;;;;16.23;13.27;;;;;;;9.70;44.15;96671.09;4373993;32;20207;-60
2022/03/20 10:05:43;;;;;;;17.40;14.07;;;;;;;9.75;44.45;96667.69;4361637;32;20255;-61
2022/03/20 10:08:16;;;;;;;15.47;13.93;;;;;;;9.80;44.17;96673.00;4372889;32;20299;-61
2022/03/20 10:10:43;;;;;;;14.97;12.63;;;;;;;9.86;44.28;96666.69;4382186;32;20275;-60
2022/03/20 10:13:12;;;;;;;14.63;13.10;;;;;;;9.80;44.43;96665.84;4376420;32;20276;-60
2022/03/20 10:15:43;;;;;;;16.17;13.33;;;;;;;9.94;43.94;96667.03;4376838;32;20296;-60
2022/03/20 10:18:22;;;;;;;14.87;12.93;;;;;;;9.99;43.57;96664.38;4383674;32;20284;-60
2022/03/20 10:20:59;;;;;;;14.20;12.27;;;;;;;10.07;43.51;96660.47;4382709;32;20272;-60
2022/03/20 10:23:36;;;;;;;14.43;12.93;;;;;;;10.14;43.14;96661.03;4382061;32;20338;-60
2022/03/20 10:26:16;;;;;;;13.97;12.53;;;;;;;10.25;42.45;96661.91;4362205;32;20284;-61
2022/03/20 10:28:48;;;;;;;13.40;12.20;;;;;;;10.34;42.27;96665.69;4363198;32;20343;-61
2022/03/20 10:31:17;;;;;;;13.87;12.53;;;;;;;10.37;42.01;96659.06;4388921;32;20299;-61
2022/03/20 10:33:46;;;;;;;13.47;12.17;;;;;;;10.41;42.00;96657.47;4374195;32;20352;-61
2022/03/20 10:36:15;;;;;;;12.20;11.10;;;;;;;10.40;42.43;96654.00;4375701;32;20303;-61
2022/03/20 10:38:43;;;;;;;12.13;11.00;;;;;;;10.50;41.63;96654.06;4366374;32;20296;-61
2022/03/20 10:41:21;;;;;;;15.40;11.30;;;;;;;10.59;40.86;96649.06;4361473;32;20295;-61
2022/03/20 10:43:48;;;;;;;13.87;11.73;;;;;;;10.66;39.45;96652.25;4359683;32;20281;-60
2022/03/20 10:46:18;;;;;;;12.23;11.03;;;;;;;10.61;40.56;96654.91;4374529;32;20330;-60
2022/03/20 10:48:45;;;;;;;11.83;10.63;;;;;;;10.71;40.01;96646.97;4356050;32;20290;-60
2022/03/20 10:51:11;;;;;;;12.43;11.23;;;;;;;10.73;40.33;96652.03;4386174;32;20276;-60
2022/03/20 10:53:53;;;;;;;12.80;11.27;;;;;;;10.83;40.51;96658.16;4363282;32;20295;-61
2022/03/20 10:56:18;;;;;;;12.87;11.57;;;;;;;10.82;40.53;96653.91;4375676;32;20181;-61
2022/03/20 10:58:45;;;;;;;12.63;11.43;;;;;;;10.82;40.62;96656.56;4377733;32;20346;-61
2022/03/20 11:01:11;;;;;;;13.80;10.93;;;;;;;10.91;40.28;96657.66;4377057;32;20173;-60
2022/03/20 11:03:38;;;;;;;12.67;11.37;;;;;;;10.99;40.53;96662.47;4362193;32;20261;-61
2022/03/20 11:06:08;;;;;;;11.90;10.80;;;;;;;11.05;39.72;96660.59;4388402;32;20272;-60
2022/03/20 11:08:36;;;;;;;12.17;11.07;;;;;;;11.14;39.51;96664.34;4378505;32;20335;-60
2022/03/20 11:11:06;;;;;;;12.23;11.03;;;;;;;11.17;38.96;96663.03;4378092;32;20284;-60
2022/03/20 11:13:47;;;;;;;12.40;11.13;;;;;;;11.23;39.06;96661.94;4362020;32;20405;-61
2022/03/20 11:23:14;;;;;;;12.47;11.07;;;;;;;11.46;39.65;96666.75;4332235;32;20283;-61
2022/03/20 11:25:43;;;;;;;12.37;11.17;;;;;;;11.54;39.37;96657.47;4377818;32;20323;-61
2022/03/20 11:28:11;;;;;;;12.90;11.60;;;;;;;11.43;39.02;96655.87;4377905;32;20272;-61
2022/03/20 11:30:38;;;;;;;12.53;11.23;;;;;;;11.54;38.81;96662.78;4364184;32;20280;-60
2022/03/20 11:33:05;;;;;;;17.20;15.40;;;;;;;11.62;38.50;96654.28;4374843;32;20269;-61
2022/03/20 11:35:33;;;;;;;11.97;10.67;;;;;;;11.60;39.05;96653.75;4379783;32;20371;-61
2022/03/20 11:38:21;;;;;;;12.57;11.37;;;;;;;11.62;38.90;96649.78;4391635;32;20280;-57
2022/03/20 11:41:07;;;;;;;13.03;11.70;;;;;;;11.62;38.53;96641.00;4377664;32;20184;-61
2022/03/20 11:43:34;;;;;;;12.40;11.20;;;;;;;11.73;38.55;96645.22;4375655;32;20288;-60
2022/03/20 11:46:27;;;;;;;12.43;11.23;;;;;;;11.81;37.99;96642.06;4366554;32;20204;-60
2022/03/20 11:49:14;;;;;;;13.30;12.03;;;;;;;11.83;38.09;96644.47;4367714;32;20196;-62
2022/03/20 11:52:07;;;;;;;12.07;10.97;;;;;;;11.78;38.36;96642.59;4365792;32;20213;-60
2022/03/20 11:54:41;;;;;;;12.43;10.70;;;;;;;11.81;38.07;96631.44;4377681;32;20181;-60
2022/03/20 11:57:29;;;;;;;12.37;11.07;;;;;;;11.86;38.31;96630.59;4363616;32;20176;-60
2022/03/20 11:59:56;;;;;;;12.50;11.27;;;;;;;11.96;38.30;96633.25;4373351;32;20269;-61
2022/03/20 12:02:41;;;;;;;15.07;12.27;;;;;;;11.91;38.50;96635.94;4391131;32;20180;-61
2022/03/20 12:05:13;;;;;;;14.00;11.90;;;;;;;11.98;38.39;96625.81;4364420;32;20177;-61
2022/03/20 12:07:50;;;;;;;12.90;11.63;;;;;;;12.05;38.50;96631.66;4387408;32;20193;-61